sensor_id;sensor_type;location;lat;lon;timestamp;temperature;humidity
42333;DHT22;27984;51.476;5.702;2023-04-25T10:42:08;16.30;72.20
42333;DHT22;27984;51.476;5.702;2023-04-25T10:46:39;17.40;70.10
42333;DHT22;27984;51.476;5.702;2023-04-25T10:49:08;17.60;59.70
42333;DHT22;27984;51.476;5.702;2023-04-25T10:51:36;17.90;65.60
42333;DHT22;27984;51.476;5.702;2023-04-25T10:54:04;18.40;60.10
42333;DHT22;27984;51.476;5.702;2023-04-25T10:59:04;18.70;65.80
42333;DHT22;27984;51.476;5.702;2023-04-25T11:05:07;18.30;63.20
42333;DHT22;27984;51.476;5.702;2023-04-25T11:07:38;17.40;63.10
42333;DHT22;27984;51.476;5.702;2023-04-25T11:10:05;17.20;67.80
42333;DHT22;27984;51.476;5.702;2023-04-25T11:12:32;17.40;68.40
42333;DHT22;27984;51.476;5.702;2023-04-25T11:15:06;17.80;68.60
42333;DHT22;27984;51.476;5.702;2023-04-25T11:17:32;18.20;68.10
42333;DHT22;27984;51.476;5.702;2023-04-25T11:19:59;17.90;68.00
42333;DHT22;27984;51.476;5.702;2023-04-25T11:22:24;17.60;66.50
42333;DHT22;27984;51.476;5.702;2023-04-25T11:24:51;16.50;65.80
42333;DHT22;27984;51.476;5.702;2023-04-25T11:27:17;15.30;70.00
42333;DHT22;27984;51.476;5.702;2023-04-25T11:29:42;14.10;84.80
42333;DHT22;27984;51.476;5.702;2023-04-25T11:32:08;13.20;94.20
42333;DHT22;27984;51.476;5.702;2023-04-25T11:34:33;11.80;99.90
42333;DHT22;27984;51.476;5.702;2023-04-25T11:37:01;10.60;99.90
42333;DHT22;27984;51.476;5.702;2023-04-25T11:39:28;10.10;99.90
42333;DHT22;27984;51.476;5.702;2023-04-25T11:41:54;9.90;99.90
42333;DHT22;27984;51.476;5.702;2023-04-25T11:44:20;9.90;99.90
42333;DHT22;27984;51.476;5.702;2023-04-25T11:46:47;9.70;99.90
42333;DHT22;27984;51.476;5.702;2023-04-25T11:49:13;9.70;99.90
42333;DHT22;27984;51.476;5.702;2023-04-25T11:54:05;9.70;99.90
42333;DHT22;27984;51.476;5.702;2023-04-25T11:56:31;9.90;99.90
42333;DHT22;27984;51.476;5.702;2023-04-25T11:59:02;10.00;99.90
42333;DHT22;27984;51.476;5.702;2023-04-25T12:01:32;10.10;99.90
42333;DHT22;27984;51.476;5.702;2023-04-25T12:03:58;10.50;99.90
42333;DHT22;27984;51.476;5.702;2023-04-25T12:06:30;10.70;99.90
42333;DHT22;27984;51.476;5.702;2023-04-25T12:09:01;11.20;99.90
42333;DHT22;27984;51.476;5.702;2023-04-25T12:11:26;11.80;99.90
42333;DHT22;27984;51.476;5.702;2023-04-25T12:13:52;12.50;99.90
42333;DHT22;27984;51.476;5.702;2023-04-25T12:16:19;13.00;99.90
42333;DHT22;27984;51.476;5.702;2023-04-25T12:18:44;13.70;99.90
42333;DHT22;27984;51.476;5.702;2023-04-25T12:21:10;14.30;99.90
42333;DHT22;27984;51.476;5.702;2023-04-25T12:23:38;15.20;97.90
42333;DHT22;27984;51.476;5.702;2023-04-25T12:26:04;15.40;92.30
42333;DHT22;27984;51.476;5.702;2023-04-25T12:28:32;14.90;92.90
42333;DHT22;27984;51.476;5.702;2023-04-25T12:31:02;14.70;91.90
42333;DHT22;27984;51.476;5.702;2023-04-25T12:33:30;15.00;92.00
42333;DHT22;27984;51.476;5.702;2023-04-25T12:35:56;15.20;90.80
42333;DHT22;27984;51.476;5.702;2023-04-25T12:38:26;15.80;87.30
42333;DHT22;27984;51.476;5.702;2023-04-25T12:40:52;16.20;79.60
42333;DHT22;27984;51.476;5.702;2023-04-25T12:43:18;16.10;85.50
42333;DHT22;27984;51.476;5.702;2023-04-25T12:45:44;16.40;78.30
42333;DHT22;27984;51.476;5.702;2023-04-25T12:48:10;16.60;80.10
42333;DHT22;27984;51.476;5.702;2023-04-25T12:50:36;17.40;81.30
42333;DHT22;27984;51.476;5.702;2023-04-25T12:53:01;17.30;74.70
42333;DHT22;27984;51.476;5.702;2023-04-25T12:55:27;16.30;75.30
42333;DHT22;27984;51.476;5.702;2023-04-25T12:57:52;15.40;76.70
42333;DHT22;27984;51.476;5.702;2023-04-25T13:00:18;14.40;74.90
42333;DHT22;27984;51.476;5.702;2023-04-25T13:02:45;13.90;74.40
42333;DHT22;27984;51.476;5.702;2023-04-25T13:05:12;13.40;77.40
42333;DHT22;27984;51.476;5.702;2023-04-25T13:07:38;13.00;76.30
42333;DHT22;27984;51.476;5.702;2023-04-25T13:10:04;13.30;72.50
42333;DHT22;27984;51.476;5.702;2023-04-25T13:12:30;14.00;70.90
42333;DHT22;27984;51.476;5.702;2023-04-25T13:14:55;14.80;68.20
42333;DHT22;27984;51.476;5.702;2023-04-25T13:17:21;15.40;69.80
42333;DHT22;27984;51.476;5.702;2023-04-25T13:19:46;15.90;68.80
42333;DHT22;27984;51.476;5.702;2023-04-25T13:22:12;16.60;65.80
42333;DHT22;27984;51.476;5.702;2023-04-25T13:24:40;16.90;68.50
42333;DHT22;27984;51.476;5.702;2023-04-25T13:27:06;16.70;68.70
42333;DHT22;27984;51.476;5.702;2023-04-25T13:29:31;15.90;71.80
42333;DHT22;27984;51.476;5.702;2023-04-25T13:31:59;14.40;77.40
42333;DHT22;27984;51.476;5.702;2023-04-25T13:34:25;13.50;82.80
42333;DHT22;27984;51.476;5.702;2023-04-25T13:36:51;12.80;89.60
42333;DHT22;27984;51.476;5.702;2023-04-25T13:39:17;12.50;91.70
42333;DHT22;27984;51.476;5.702;2023-04-25T13:41:42;12.40;92.50
42333;DHT22;27984;51.476;5.702;2023-04-25T13:44:08;13.10;91.20
42333;DHT22;27984;51.476;5.702;2023-04-25T13:46:33;14.00;89.90
42333;DHT22;27984;51.476;5.702;2023-04-25T13:48:59;14.70;80.50
42333;DHT22;27984;51.476;5.702;2023-04-25T13:51:24;15.50;77.40
42333;DHT22;27984;51.476;5.702;2023-04-25T13:53:51;16.00;72.70
42333;DHT22;27984;51.476;5.702;2023-04-25T13:56:18;15.70;70.10
42333;DHT22;27984;51.476;5.702;2023-04-25T13:58:45;15.40;71.10
42333;DHT22;27984;51.476;5.702;2023-04-25T14:01:10;15.20;70.20
42333;DHT22;27984;51.476;5.702;2023-04-25T14:03:36;15.00;74.30
42333;DHT22;27984;51.476;5.702;2023-04-25T14:06:01;14.70;72.80
42333;DHT22;27984;51.476;5.702;2023-04-25T14:08:27;14.90;71.60
42333;DHT22;27984;51.476;5.702;2023-04-25T14:10:54;14.70;74.60
42333;DHT22;27984;51.476;5.702;2023-04-25T14:13:19;15.20;73.20
42333;DHT22;27984;51.476;5.702;2023-04-25T14:15:45;15.60;72.10
42333;DHT22;27984;51.476;5.702;2023-04-25T14:18:10;15.70;72.00
42333;DHT22;27984;51.476;5.702;2023-04-25T14:20:36;15.60;70.60
42333;DHT22;27984;51.476;5.702;2023-04-25T14:23:02;15.50;73.00
42333;DHT22;27984;51.476;5.702;2023-04-25T14:25:29;14.80;73.10
42333;DHT22;27984;51.476;5.702;2023-04-25T14:27:55;14.30;75.40
42333;DHT22;27984;51.476;5.702;2023-04-25T14:30:21;13.50;78.20
42333;DHT22;27984;51.476;5.702;2023-04-25T14:32:50;12.80;81.60
42333;DHT22;27984;51.476;5.702;2023-04-25T14:35:16;12.10;87.50
42333;DHT22;27984;51.476;5.702;2023-04-25T14:37:42;11.80;88.60
42333;DHT22;27984;51.476;5.702;2023-04-25T14:40:08;11.90;90.30
42333;DHT22;27984;51.476;5.702;2023-04-25T14:42:38;12.70;89.70
42333;DHT22;27984;51.476;5.702;2023-04-25T14:45:05;13.70;87.00
42333;DHT22;27984;51.476;5.702;2023-04-25T14:47:32;13.90;79.30
42333;DHT22;27984;51.476;5.702;2023-04-25T14:49:58;14.10;79.50
42333;DHT22;27984;51.476;5.702;2023-04-25T14:52:23;14.40;77.00
42333;DHT22;27984;51.476;5.702;2023-04-25T14:54:49;14.60;75.60
42333;DHT22;27984;51.476;5.702;2023-04-25T14:57:15;14.20;76.70
42333;DHT22;27984;51.476;5.702;2023-04-25T14:59:41;13.90;75.80
42333;DHT22;27984;51.476;5.702;2023-04-25T15:02:06;13.40;76.40
42333;DHT22;27984;51.476;5.702;2023-04-25T15:04:32;12.90;78.80
42333;DHT22;27984;51.476;5.702;2023-04-25T15:06:57;12.70;80.50
42333;DHT22;27984;51.476;5.702;2023-04-25T15:09:24;12.80;81.20
42333;DHT22;27984;51.476;5.702;2023-04-25T15:11:50;12.90;81.20
42333;DHT22;27984;51.476;5.702;2023-04-25T15:14:17;13.40;82.60
42333;DHT22;27984;51.476;5.702;2023-04-25T15:16:42;13.70;78.90
42333;DHT22;27984;51.476;5.702;2023-04-25T15:19:08;13.50;78.00
42333;DHT22;27984;51.476;5.702;2023-04-25T15:21:33;13.00;79.60
42333;DHT22;27984;51.476;5.702;2023-04-25T15:23:59;12.70;81.80
42333;DHT22;27984;51.476;5.702;2023-04-25T15:26:25;12.30;82.70
42333;DHT22;27984;51.476;5.702;2023-04-25T15:28:50;12.10;84.40
42333;DHT22;27984;51.476;5.702;2023-04-25T15:31:16;12.00;84.40
42333;DHT22;27984;51.476;5.702;2023-04-25T15:33:41;11.80;82.50
42333;DHT22;27984;51.476;5.702;2023-04-25T15:36:07;11.70;81.40
42333;DHT22;27984;51.476;5.702;2023-04-25T15:38:32;11.80;83.80
42333;DHT22;27984;51.476;5.702;2023-04-25T15:40:58;11.80;85.90
42333;DHT22;27984;51.476;5.702;2023-04-25T15:43:24;11.80;86.90
42333;DHT22;27984;51.476;5.702;2023-04-25T15:45:49;11.70;88.60
42333;DHT22;27984;51.476;5.702;2023-04-25T15:48:15;11.70;87.60
42333;DHT22;27984;51.476;5.702;2023-04-25T15:50:41;11.80;89.40
42333;DHT22;27984;51.476;5.702;2023-04-25T15:53:06;11.80;87.30
42333;DHT22;27984;51.476;5.702;2023-04-25T15:55:32;11.80;80.60
42333;DHT22;27984;51.476;5.702;2023-04-25T15:57:58;11.70;79.20
42333;DHT22;27984;51.476;5.702;2023-04-25T16:00:24;11.50;79.00
42333;DHT22;27984;51.476;5.702;2023-04-25T16:02:49;11.40;79.80
42333;DHT22;27984;51.476;5.702;2023-04-25T16:05:15;11.20;80.80
42333;DHT22;27984;51.476;5.702;2023-04-25T16:07:42;11.10;79.80
42333;DHT22;27984;51.476;5.702;2023-04-25T16:10:09;11.10;83.10
42333;DHT22;27984;51.476;5.702;2023-04-25T16:12:35;11.10;82.10
42333;DHT22;27984;51.476;5.702;2023-04-25T16:15:02;11.20;83.50
42333;DHT22;27984;51.476;5.702;2023-04-25T16:17:27;11.20;84.70
42333;DHT22;27984;51.476;5.702;2023-04-25T16:19:55;11.20;83.10
42333;DHT22;27984;51.476;5.702;2023-04-25T16:22:20;11.10;81.60
42333;DHT22;27984;51.476;5.702;2023-04-25T16:24:46;11.10;81.80
42333;DHT22;27984;51.476;5.702;2023-04-25T16:27:11;11.00;84.10
42333;DHT22;27984;51.476;5.702;2023-04-25T16:29:37;11.00;77.80
42333;DHT22;27984;51.476;5.702;2023-04-25T16:32:03;11.10;80.70
42333;DHT22;27984;51.476;5.702;2023-04-25T16:34:29;11.10;73.60
42333;DHT22;27984;51.476;5.702;2023-04-25T16:36:55;11.20;78.80
42333;DHT22;27984;51.476;5.702;2023-04-25T16:39:21;11.10;77.40
42333;DHT22;27984;51.476;5.702;2023-04-25T16:41:47;11.00;74.50
42333;DHT22;27984;51.476;5.702;2023-04-25T16:44:13;10.90;75.20
42333;DHT22;27984;51.476;5.702;2023-04-25T16:46:38;10.90;76.20
42333;DHT22;27984;51.476;5.702;2023-04-25T16:49:04;10.70;76.00
42333;DHT22;27984;51.476;5.702;2023-04-25T16:51:31;10.60;78.90
42333;DHT22;27984;51.476;5.702;2023-04-25T16:53:57;10.60;81.80
42333;DHT22;27984;51.476;5.702;2023-04-25T16:56:22;10.50;83.00
42333;DHT22;27984;51.476;5.702;2023-04-25T16:58:49;10.50;85.00
42333;DHT22;27984;51.476;5.702;2023-04-25T17:01:15;10.50;86.00
42333;DHT22;27984;51.476;5.702;2023-04-25T17:03:42;10.50;87.00
42333;DHT22;27984;51.476;5.702;2023-04-25T17:06:09;10.50;84.60
42333;DHT22;27984;51.476;5.702;2023-04-25T17:08:34;10.50;86.50
42333;DHT22;27984;51.476;5.702;2023-04-25T17:11:00;10.50;87.70
42333;DHT22;27984;51.476;5.702;2023-04-25T17:13:26;10.50;86.30
42333;DHT22;27984;51.476;5.702;2023-04-25T17:15:52;10.40;84.90
42333;DHT22;27984;51.476;5.702;2023-04-25T17:18:17;10.30;83.20
42333;DHT22;27984;51.476;5.702;2023-04-25T17:20:43;10.30;82.80
42333;DHT22;27984;51.476;5.702;2023-04-25T17:23:08;10.20;81.30
42333;DHT22;27984;51.476;5.702;2023-04-25T17:25:34;10.20;80.20
42333;DHT22;27984;51.476;5.702;2023-04-25T17:28:00;10.10;81.10
42333;DHT22;27984;51.476;5.702;2023-04-25T17:30:25;10.00;82.10
42333;DHT22;27984;51.476;5.702;2023-04-25T17:32:51;10.00;85.10
42333;DHT22;27984;51.476;5.702;2023-04-25T17:35:17;10.00;86.70
42333;DHT22;27984;51.476;5.702;2023-04-25T17:37:43;9.90;88.40
42333;DHT22;27984;51.476;5.702;2023-04-25T17:40:10;9.90;87.20
42333;DHT22;27984;51.476;5.702;2023-04-25T17:42:37;9.90;88.80
42333;DHT22;27984;51.476;5.702;2023-04-25T17:45:03;9.80;87.40
42333;DHT22;27984;51.476;5.702;2023-04-25T17:47:28;9.60;86.80
42333;DHT22;27984;51.476;5.702;2023-04-25T17:49:54;9.60;87.00
42333;DHT22;27984;51.476;5.702;2023-04-25T17:52:21;9.50;87.50
42333;DHT22;27984;51.476;5.702;2023-04-25T17:54:46;9.50;88.50
42333;DHT22;27984;51.476;5.702;2023-04-25T17:57:12;9.50;88.70
42333;DHT22;27984;51.476;5.702;2023-04-25T17:59:38;9.40;87.90
42333;DHT22;27984;51.476;5.702;2023-04-25T18:02:03;9.50;88.10
42333;DHT22;27984;51.476;5.702;2023-04-25T18:04:29;9.40;89.10
42333;DHT22;27984;51.476;5.702;2023-04-25T18:06:54;9.30;88.90
42333;DHT22;27984;51.476;5.702;2023-04-25T18:09:20;9.30;88.40
42333;DHT22;27984;51.476;5.702;2023-04-25T18:11:48;9.30;90.20
42333;DHT22;27984;51.476;5.702;2023-04-25T18:14:14;9.20;91.00
42333;DHT22;27984;51.476;5.702;2023-04-25T18:16:42;9.20;92.10
42333;DHT22;27984;51.476;5.702;2023-04-25T18:19:08;9.10;93.80
42333;DHT22;27984;51.476;5.702;2023-04-25T18:21:42;9.00;94.70
42333;DHT22;27984;51.476;5.702;2023-04-25T18:24:09;8.90;95.70
42333;DHT22;27984;51.476;5.702;2023-04-25T18:26:37;8.90;96.70
42333;DHT22;27984;51.476;5.702;2023-04-25T18:29:02;8.80;97.40
42333;DHT22;27984;51.476;5.702;2023-04-25T18:31:28;8.80;97.70
42333;DHT22;27984;51.476;5.702;2023-04-25T18:33:56;8.70;98.30
42333;DHT22;27984;51.476;5.702;2023-04-25T18:36:22;8.70;99.00
42333;DHT22;27984;51.476;5.702;2023-04-25T18:38:47;8.60;99.50
42333;DHT22;27984;51.476;5.702;2023-04-25T18:41:21;8.50;99.60
42333;DHT22;27984;51.476;5.702;2023-04-25T18:43:57;8.50;99.90
42333;DHT22;27984;51.476;5.702;2023-04-25T18:46:27;8.40;99.80
42333;DHT22;27984;51.476;5.702;2023-04-25T18:48:53;8.30;99.30
42333;DHT22;27984;51.476;5.702;2023-04-25T18:51:20;8.30;99.10
42333;DHT22;27984;51.476;5.702;2023-04-25T18:53:47;8.20;98.60
42333;DHT22;27984;51.476;5.702;2023-04-25T18:56:13;8.20;98.30
42333;DHT22;27984;51.476;5.702;2023-04-25T18:58:39;8.10;97.90
42333;DHT22;27984;51.476;5.702;2023-04-25T19:01:06;8.10;98.10
42333;DHT22;27984;51.476;5.702;2023-04-25T19:03:32;8.00;97.70
42333;DHT22;27984;51.476;5.702;2023-04-25T19:05:58;8.00;97.70
42333;DHT22;27984;51.476;5.702;2023-04-25T19:08:24;7.90;98.10
42333;DHT22;27984;51.476;5.702;2023-04-25T19:10:50;7.90;98.60
42333;DHT22;27984;51.476;5.702;2023-04-25T19:13:18;7.90;98.20
42333;DHT22;27984;51.476;5.702;2023-04-25T19:15:45;7.90;99.00
42333;DHT22;27984;51.476;5.702;2023-04-25T19:18:11;7.80;98.90
42333;DHT22;27984;51.476;5.702;2023-04-25T19:20:37;7.90;99.90
42333;DHT22;27984;51.476;5.702;2023-04-25T19:23:03;7.80;99.90
42333;DHT22;27984;51.476;5.702;2023-04-25T19:25:29;7.80;99.90
42333;DHT22;27984;51.476;5.702;2023-04-25T19:27:55;7.70;99.50
42333;DHT22;27984;51.476;5.702;2023-04-25T19:30:21;7.70;99.90
42333;DHT22;27984;51.476;5.702;2023-04-25T19:32:47;7.70;99.90
42333;DHT22;27984;51.476;5.702;2023-04-25T19:35:13;7.70;99.90
42333;DHT22;27984;51.476;5.702;2023-04-25T19:37:38;7.60;99.90
42333;DHT22;27984;51.476;5.702;2023-04-25T19:40:11;7.60;99.90
42333;DHT22;27984;51.476;5.702;2023-04-25T19:42:36;7.50;99.90
42333;DHT22;27984;51.476;5.702;2023-04-25T19:45:02;7.50;99.90
42333;DHT22;27984;51.476;5.702;2023-04-25T19:47:28;7.40;99.90
42333;DHT22;27984;51.476;5.702;2023-04-25T19:49:53;7.40;99.90
42333;DHT22;27984;51.476;5.702;2023-04-25T19:52:19;7.30;99.90
42333;DHT22;27984;51.476;5.702;2023-04-25T19:54:45;7.30;99.90
42333;DHT22;27984;51.476;5.702;2023-04-25T19:57:11;7.30;99.90
42333;DHT22;27984;51.476;5.702;2023-04-25T19:59:37;7.30;99.90
42333;DHT22;27984;51.476;5.702;2023-04-25T20:02:03;7.20;99.90
42333;DHT22;27984;51.476;5.702;2023-04-25T20:04:29;7.20;99.90
42333;DHT22;27984;51.476;5.702;2023-04-25T20:06:55;7.20;99.90
42333;DHT22;27984;51.476;5.702;2023-04-25T20:09:20;7.10;99.90
42333;DHT22;27984;51.476;5.702;2023-04-25T20:11:46;7.10;99.90
42333;DHT22;27984;51.476;5.702;2023-04-25T20:14:12;7.10;99.90
42333;DHT22;27984;51.476;5.702;2023-04-25T20:16:37;7.10;99.90
42333;DHT22;27984;51.476;5.702;2023-04-25T20:19:03;7.00;99.90
42333;DHT22;27984;51.476;5.702;2023-04-25T20:21:32;6.90;99.90
42333;DHT22;27984;51.476;5.702;2023-04-25T20:24:01;6.90;99.90
42333;DHT22;27984;51.476;5.702;2023-04-25T20:26:27;6.80;99.90
42333;DHT22;27984;51.476;5.702;2023-04-25T20:28:53;6.80;99.90
42333;DHT22;27984;51.476;5.702;2023-04-25T20:31:19;6.80;99.90
42333;DHT22;27984;51.476;5.702;2023-04-25T20:33:45;6.80;99.90
42333;DHT22;27984;51.476;5.702;2023-04-25T20:36:11;6.80;99.90
42333;DHT22;27984;51.476;5.702;2023-04-25T20:38:39;6.70;99.90
42333;DHT22;27984;51.476;5.702;2023-04-25T20:41:05;6.70;99.90
42333;DHT22;27984;51.476;5.702;2023-04-25T20:43:30;6.60;99.90
42333;DHT22;27984;51.476;5.702;2023-04-25T20:45:56;6.60;99.90
42333;DHT22;27984;51.476;5.702;2023-04-25T20:48:22;6.60;99.90
42333;DHT22;27984;51.476;5.702;2023-04-25T20:50:48;6.50;99.90
42333;DHT22;27984;51.476;5.702;2023-04-25T20:53:14;6.50;99.90
42333;DHT22;27984;51.476;5.702;2023-04-25T20:55:39;6.40;99.90
42333;DHT22;27984;51.476;5.702;2023-04-25T20:58:06;6.40;99.90
42333;DHT22;27984;51.476;5.702;2023-04-25T21:00:33;6.40;99.90
42333;DHT22;27984;51.476;5.702;2023-04-25T21:02:58;6.40;99.90
42333;DHT22;27984;51.476;5.702;2023-04-25T21:05:26;6.30;99.90
42333;DHT22;27984;51.476;5.702;2023-04-25T21:07:52;6.30;99.90
42333;DHT22;27984;51.476;5.702;2023-04-25T21:10:17;6.20;99.90
42333;DHT22;27984;51.476;5.702;2023-04-25T21:12:43;6.20;99.90
42333;DHT22;27984;51.476;5.702;2023-04-25T21:15:14;6.20;99.90
42333;DHT22;27984;51.476;5.702;2023-04-25T21:17:42;6.20;99.90
42333;DHT22;27984;51.476;5.702;2023-04-25T21:20:12;6.10;99.90
42333;DHT22;27984;51.476;5.702;2023-04-25T21:22:37;6.10;99.90
42333;DHT22;27984;51.476;5.702;2023-04-25T21:25:12;6.10;99.90
42333;DHT22;27984;51.476;5.702;2023-04-25T21:27:39;6.10;99.90
42333;DHT22;27984;51.476;5.702;2023-04-25T21:30:05;6.10;99.90
42333;DHT22;27984;51.476;5.702;2023-04-25T21:32:32;6.00;99.90
42333;DHT22;27984;51.476;5.702;2023-04-25T21:35:00;5.90;99.90
42333;DHT22;27984;51.476;5.702;2023-04-25T21:37:25;5.90;99.90
42333;DHT22;27984;51.476;5.702;2023-04-25T21:39:51;6.00;99.90
42333;DHT22;27984;51.476;5.702;2023-04-25T21:42:16;5.90;99.90
42333;DHT22;27984;51.476;5.702;2023-04-25T21:44:42;5.90;99.90
42333;DHT22;27984;51.476;5.702;2023-04-25T21:47:08;5.80;99.90
42333;DHT22;27984;51.476;5.702;2023-04-25T21:49:33;5.80;99.90
42333;DHT22;27984;51.476;5.702;2023-04-25T21:51:59;5.70;99.90
42333;DHT22;27984;51.476;5.702;2023-04-25T21:54:25;5.70;99.90
42333;DHT22;27984;51.476;5.702;2023-04-25T21:56:50;5.70;99.90
42333;DHT22;27984;51.476;5.702;2023-04-25T21:59:16;5.70;99.90
42333;DHT22;27984;51.476;5.702;2023-04-25T22:01:42;5.60;99.90
42333;DHT22;27984;51.476;5.702;2023-04-25T22:04:07;5.60;99.90
42333;DHT22;27984;51.476;5.702;2023-04-25T22:06:33;5.50;99.90
42333;DHT22;27984;51.476;5.702;2023-04-25T22:08:58;5.50;99.90
42333;DHT22;27984;51.476;5.702;2023-04-25T22:11:24;5.50;99.90
42333;DHT22;27984;51.476;5.702;2023-04-25T22:13:50;5.50;99.90
42333;DHT22;27984;51.476;5.702;2023-04-25T22:16:16;5.40;99.90
42333;DHT22;27984;51.476;5.702;2023-04-25T22:18:42;5.40;99.90
42333;DHT22;27984;51.476;5.702;2023-04-25T22:21:10;5.40;99.90
42333;DHT22;27984;51.476;5.702;2023-04-25T22:23:36;5.40;99.90
42333;DHT22;27984;51.476;5.702;2023-04-25T22:26:02;5.40;99.90
42333;DHT22;27984;51.476;5.702;2023-04-25T22:28:28;5.40;99.90
42333;DHT22;27984;51.476;5.702;2023-04-25T22:30:54;5.30;99.90
42333;DHT22;27984;51.476;5.702;2023-04-25T22:33:20;5.30;99.90
42333;DHT22;27984;51.476;5.702;2023-04-25T22:35:46;5.30;99.90
42333;DHT22;27984;51.476;5.702;2023-04-25T22:38:11;5.20;99.90
42333;DHT22;27984;51.476;5.702;2023-04-25T22:40:37;5.20;99.90
42333;DHT22;27984;51.476;5.702;2023-04-25T22:43:02;5.20;99.90
42333;DHT22;27984;51.476;5.702;2023-04-25T22:45:29;5.10;99.90
42333;DHT22;27984;51.476;5.702;2023-04-25T22:47:56;5.20;99.90
42333;DHT22;27984;51.476;5.702;2023-04-25T22:50:21;5.20;99.90
42333;DHT22;27984;51.476;5.702;2023-04-25T22:52:47;5.20;99.90
42333;DHT22;27984;51.476;5.702;2023-04-25T22:55:13;5.20;99.90
42333;DHT22;27984;51.476;5.702;2023-04-25T22:57:39;5.10;99.90
42333;DHT22;27984;51.476;5.702;2023-04-25T23:00:06;5.00;99.90
42333;DHT22;27984;51.476;5.702;2023-04-25T23:02:40;5.00;99.90
42333;DHT22;27984;51.476;5.702;2023-04-25T23:05:06;4.90;99.90
42333;DHT22;27984;51.476;5.702;2023-04-25T23:07:31;4.90;99.90
42333;DHT22;27984;51.476;5.702;2023-04-25T23:09:58;4.90;99.90
42333;DHT22;27984;51.476;5.702;2023-04-25T23:12:24;4.90;99.90
42333;DHT22;27984;51.476;5.702;2023-04-25T23:14:49;4.80;99.90
42333;DHT22;27984;51.476;5.702;2023-04-25T23:17:16;4.80;99.90
42333;DHT22;27984;51.476;5.702;2023-04-25T23:19:41;4.70;99.90
42333;DHT22;27984;51.476;5.702;2023-04-25T23:22:07;4.70;99.90
42333;DHT22;27984;51.476;5.702;2023-04-25T23:24:36;4.70;99.90
42333;DHT22;27984;51.476;5.702;2023-04-25T23:27:04;4.70;99.90
42333;DHT22;27984;51.476;5.702;2023-04-25T23:29:30;4.60;99.90
42333;DHT22;27984;51.476;5.702;2023-04-25T23:31:58;4.60;99.90
42333;DHT22;27984;51.476;5.702;2023-04-25T23:34:28;4.60;99.90
42333;DHT22;27984;51.476;5.702;2023-04-25T23:36:54;4.60;99.90
42333;DHT22;27984;51.476;5.702;2023-04-25T23:39:20;4.60;99.90
42333;DHT22;27984;51.476;5.702;2023-04-25T23:41:45;4.50;99.90
42333;DHT22;27984;51.476;5.702;2023-04-25T23:44:11;4.50;99.90
42333;DHT22;27984;51.476;5.702;2023-04-25T23:46:36;4.40;99.90
42333;DHT22;27984;51.476;5.702;2023-04-25T23:49:02;4.40;99.90
42333;DHT22;27984;51.476;5.702;2023-04-25T23:51:29;4.40;99.90
42333;DHT22;27984;51.476;5.702;2023-04-25T23:53:54;4.40;99.90
42333;DHT22;27984;51.476;5.702;2023-04-25T23:56:20;4.40;99.90
42333;DHT22;27984;51.476;5.702;2023-04-25T23:58:47;4.30;99.90
